Time;durP1;ratioP1;P1;durP2;ratioP2;P2;SDS_P1;SDS_P2;PMS_P1;PMS_P2;Temp;Humidity;BMP_temperature;BMP_pressure;BME280_temperature;BME280_humidity;BME280_pressure;Samples;Min_cycle;Max_cycle;Signal;HPM_P1;HPM_P2
2022/06/28 14:21:18;;;;;;;4.63;3.80;;;22.90;61.10;;;19.95;71.94;95639.69;5085840;27;20334;-47
2022/06/28 14:23:43;;;;;;;3.80;3.50;;;22.80;62.10;;;19.92;72.70;95643.03;5031448;28;20121;-47
2022/06/28 14:26:15;;;;;;;4.35;3.75;;;23.40;61.20;;;19.97;71.63;95629.34;5066521;28;20048;-51
2022/06/28 14:28:41;;;;;;;7.82;4.10;;;23.80;60.60;;;19.97;72.66;95617.75;5066359;28;20475;-47
2022/06/28 14:31:07;;;;;;;5.90;3.60;;;24.30;58.90;;;20.04;72.38;95607.22;5042002;28;20051;-48
2022/06/28 14:33:33;;;;;;;4.43;4.00;;;24.60;58.10;;;20.01;72.17;95592.44;5053007;28;20065;-51
2022/06/28 14:36:00;;;;;;;7.93;3.80;;;25.00;57.40;;;20.15;72.25;95584.13;5011822;28;20024;-48
2022/06/28 14:38:26;;;;;;;4.72;4.00;;;25.20;56.90;;;20.15;71.34;95581.44;5054132;28;20497;-48
2022/06/28 14:40:53;;;;;;;4.97;3.78;;;25.40;56.40;;;20.06;71.22;95594.97;5034964;28;20035;-51
2022/06/28 14:43:23;;;;;;;4.85;3.80;;;25.50;55.90;;;20.20;71.47;95607.47;5013512;28;20028;-46
2022/06/28 14:45:49;;;;;;;5.63;3.67;;;25.50;55.80;;;20.24;71.40;95606.47;5041549;28;20090;-50
2022/06/28 14:48:16;;;;;;;3.90;3.60;;;25.50;55.70;;;20.25;71.66;95596.50;5056005;28;20032;-49
2022/06/28 14:50:42;;;;;;;3.80;3.50;;;25.40;55.70;;;20.08;71.97;95597.34;5047277;28;20028;-46
2022/06/28 14:53:12;;;;;;;4.10;3.60;;;25.30;55.70;;;20.02;72.53;95604.84;5047303;28;20020;-47
2022/06/28 14:55:40;;;;;;;5.30;3.70;;;25.10;55.80;;;20.05;72.54;95606.09;5028579;28;20071;-48
2022/06/28 14:58:07;;;;;;;6.38;4.05;;;25.00;55.90;;;20.14;72.49;95606.06;5027373;28;20032;-47
2022/06/28 15:00:37;;;;;;;3.85;3.22;;;25.00;56.10;;;20.14;71.86;95606.84;5045096;28;20061;-47
2022/06/28 15:03:04;;;;;;;5.25;3.95;;;24.90;56.10;;;20.16;72.15;95609.25;5045121;28;20162;-48
2022/06/28 15:05:31;;;;;;;3.53;3.22;;;24.90;56.20;;;20.12;71.54;95601.00;5045497;28;20032;-47
2022/06/28 15:07:58;;;;;;;3.92;3.05;;;24.90;56.20;;;20.22;71.72;95603.34;5039552;28;20027;-46
2022/06/28 15:10:23;;;;;;;4.43;3.35;;;24.90;56.10;;;20.26;71.39;95598.06;5027965;28;20028;-46
2022/06/28 15:12:49;;;;;;;8.13;3.60;;;24.90;56.10;;;20.25;71.20;95599.19;5027564;28;20028;-48
2022/06/28 15:15:18;;;;;;;3.50;3.20;;;24.90;56.10;;;20.17;71.69;95578.38;5009468;28;20053;-48
2022/06/28 15:17:44;;;;;;;5.60;3.63;;;24.90;56.00;;;20.07;71.77;95558.69;5039806;28;20498;-46
2022/06/28 15:20:13;;;;;;;4.60;3.92;;;25.00;55.90;;;20.12;72.01;95546.94;5053396;28;20147;-49
2022/06/28 15:30:55;;;;;;;7.70;3.38;;;26.70;54.10;;;21.35;68.29;95536.78;5041054;28;20568;-48
2022/06/28 15:33:27;;;;;;;3.95;3.42;;;27.40;53.50;;;21.63;67.24;95534.28;5029380;28;20021;-46
2022/06/28 15:35:59;;;;;;;4.57;3.55;;;27.80;52.70;;;21.81;66.17;95513.97;5016574;28;20035;-49
2022/06/28 15:38:27;;;;;;;4.80;3.70;;;28.10;52.00;;;21.84;66.14;95518.72;5043467;28;20051;-46
2022/06/28 15:40:53;;;;;;;3.50;3.20;;;28.40;51.40;;;22.04;65.35;95514.31;5038531;28;20460;-48
2022/06/28 15:43:20;;;;;;;3.78;3.47;;;28.60;51.00;;;22.07;65.33;95524.50;5013640;28;20387;-46
2022/06/28 15:45:47;;;;;;;7.32;3.97;;;28.80;50.40;;;22.20;65.21;95527.22;5033904;28;20028;-46
2022/06/28 15:48:15;;;;;;;3.95;3.65;;;28.90;49.90;;;22.24;65.47;95528.91;5023222;28;20432;-47
2022/06/28 15:50:41;;;;;;;5.15;3.40;;;29.10;49.70;;;22.18;64.50;95519.41;5029118;28;20016;-45
2022/06/28 15:53:08;;;;;;;3.95;3.53;;;29.30;49.20;;;22.34;64.02;95522.22;5022724;28;20517;-47
2022/06/28 15:55:34;;;;;;;4.00;3.42;;;29.60;48.50;;;22.36;62.95;95522.69;5034129;28;20029;-46
2022/06/28 15:58:01;;;;;;;3.88;3.33;;;29.80;47.80;;;22.51;63.37;95530.13;5025442;28;20103;-51
2022/06/28 16:00:30;;;;;;;5.20;3.72;;;29.70;47.80;;;22.66;63.31;95515.06;5032689;28;20495;-49
2022/06/28 16:02:56;;;;;;;3.92;3.53;;;29.50;47.80;;;22.49;62.69;95518.81;5020931;28;20423;-47
2022/06/28 16:05:25;;;;;;;6.95;3.30;;;29.50;47.70;;;22.52;63.38;95526.28;5042767;28;20024;-45
2022/06/28 16:07:59;;;;;;;3.60;3.30;;;29.40;47.70;;;22.67;62.90;95524.78;5035259;28;20483;-48
2022/06/28 16:10:29;;;;;;;6.03;3.10;;;29.20;47.80;;;22.86;62.97;95521.44;5012731;28;20025;-48
2022/06/28 16:12:56;;;;;;;3.60;3.30;;;29.00;48.20;;;22.72;62.23;95532.69;5022013;28;20025;-48
2022/06/28 16:15:36;;;;;;;4.85;3.17;;;29.00;48.30;;;22.75;63.17;95523.88;5030088;28;20498;-48
2022/06/28 16:18:10;;;;;;;4.97;3.55;;;28.80;48.50;;;22.80;63.06;95530.97;5012467;28;20115;-50
2022/06/28 16:20:38;;;;;;;3.47;3.17;;;28.70;48.80;;;22.83;62.65;95530.28;5044031;28;20059;-49
2022/06/28 16:23:06;;;;;;;6.28;3.50;;;28.50;48.80;;;22.69;62.95;95517.09;5012513;28;20025;-46
2022/06/28 16:25:33;;;;;;;5.05;3.90;;;28.50;48.90;;;22.62;63.77;95511.44;5021653;28;20032;-46
2022/06/28 16:28:00;;;;;;;4.18;3.22;;;28.40;49.00;;;22.35;64.28;95502.13;5010699;28;20027;-47
2022/06/28 16:30:27;;;;;;;5.07;3.58;;;28.20;49.10;;;21.98;65.17;95475.00;5039777;28;20033;-51
2022/06/28 16:32:53;;;;;;;7.20;3.80;;;28.00;49.00;;;21.58;66.82;95470.25;5034417;28;20064;-49
2022/06/28 16:35:22;;;;;;;3.50;3.20;;;27.80;49.30;;;21.40;67.79;95458.03;5021325;28;20484;-48
2022/06/28 16:37:51;;;;;;;3.80;3.20;;;27.50;49.60;;;21.38;67.94;95454.88;5042508;28;20036;-50
2022/06/28 16:40:23;;;;;;;3.80;3.38;;;27.20;50.20;;;20.96;68.74;95454.94;5037497;28;20033;-51
2022/06/28 16:42:55;;;;;;;4.72;3.10;;;26.90;50.40;;;20.82;70.40;95468.00;5023398;28;20119;-48
2022/06/28 16:45:21;;;;;;;5.05;3.20;;;26.70;51.00;;;21.02;70.14;95476.06;5036816;28;20465;-53
2022/06/28 16:47:50;;;;;;;3.75;3.38;;;26.40;51.50;;;20.99;68.69;95468.59;5030204;28;20027;-53
2022/06/28 16:50:19;;;;;;;3.03;2.72;;;26.30;51.80;;;21.08;69.28;95467.75;5031336;28;20030;-47
2022/06/28 16:52:48;;;;;;;3.40;2.88;;;26.10;52.10;;;21.00;69.30;95464.00;5046540;28;20023;-49
2022/06/28 16:55:14;;;;;;;3.63;3.10;;;26.00;52.40;;;20.89;69.81;95452.00;5037737;28;20054;-51
2022/06/28 16:57:43;;;;;;;4.28;3.20;;;25.90;52.60;;;20.70;70.27;95449.78;5030254;28;20119;-50
2022/06/28 17:00:16;;;;;;;6.20;3.38;;;25.70;52.90;;;20.59;71.11;95451.31;5032464;28;20024;-48
2022/06/28 17:02:44;;;;;;;3.80;3.47;;;25.60;53.20;;;20.31;71.77;95452.63;5019209;28;20028;-50
2022/06/28 17:05:11;;;;;;;3.40;3.10;;;25.40;53.30;;;20.36;71.37;95453.53;5022717;28;20067;-45
2022/06/28 17:07:37;;;;;;;4.07;3.20;;;25.30;53.70;;;20.29;71.40;95454.06;5018794;28;20023;-54
2022/06/28 17:10:13;;;;;;;5.00;3.50;;;25.10;53.90;;;20.22;71.91;95451.91;5014979;28;20017;-54
2022/06/28 17:12:48;;;;;;;3.85;2.97;;;25.00;54.20;;;20.12;71.99;95449.59;5023137;28;20386;-49
2022/06/28 17:15:20;;;;;;;3.05;2.80;;;24.80;54.60;;;20.10;72.52;95454.53;5027403;28;20161;-52
2022/06/28 17:17:49;;;;;;;3.63;2.92;;;24.70;54.80;;;19.97;72.71;95453.66;5036176;28;20414;-50
2022/06/28 17:20:18;;;;;;;6.65;2.92;;;24.70;55.00;;;19.94;73.13;95450.81;5015237;28;20051;-50
2022/06/28 17:22:44;;;;;;;4.38;2.97;;;24.50;55.20;;;19.75;73.50;95446.63;5011862;28;20480;-48
2022/06/28 17:25:13;;;;;;;3.45;2.90;;;24.40;55.30;;;19.60;74.07;95439.03;5023475;28;20044;-49
2022/06/28 17:27:39;;;;;;;4.03;3.03;;;24.40;55.60;;;19.61;74.15;95443.31;5023513;28;20036;-51
2022/06/28 17:30:11;;;;;;;4.28;2.90;;;24.40;55.70;;;19.54;74.43;95446.53;5015419;28;20025;-51
2022/06/28 17:32:40;;;;;;;7.32;3.17;;;24.30;55.90;;;19.58;73.89;95436.63;5030434;28;20426;-49
2022/06/28 17:35:09;;;;;;;4.15;2.60;;;24.30;56.00;;;19.58;73.99;95435.84;5031341;28;20062;-50
2022/06/28 17:37:41;;;;;;;5.35;3.22;;;24.20;56.10;;;19.58;73.66;95431.22;5015501;28;20100;-54
2022/06/28 17:40:08;;;;;;;2.97;2.50;;;24.20;56.30;;;19.59;73.28;95440.16;5010907;28;20032;-52
2022/06/28 17:42:34;;;;;;;2.88;2.20;;;24.10;56.20;;;19.56;73.34;95433.50;5029623;28;20031;-50
2022/06/28 17:45:00;;;;;;;3.70;2.50;;;24.10;56.20;;;19.48;73.49;95430.81;5028460;28;20495;-51
2022/06/28 17:47:26;;;;;;;7.88;2.78;;;24.10;56.30;;;19.44;74.07;95427.19;5008404;28;20115;-48
2022/06/28 17:49:56;;;;;;;8.13;2.60;;;24.00;56.40;;;19.41;74.19;95423.22;5028973;28;20040;-53
2022/06/28 17:52:30;;;;;;;5.13;2.80;;;24.00;56.60;;;19.35;74.02;95425.31;5028967;28;20525;-51
2022/06/28 17:54:56;;;;;;;7.63;2.50;;;23.90;56.70;;;19.32;74.31;95434.06;5028844;28;20402;-47
2022/06/28 17:57:22;;;;;;;3.15;2.20;;;23.90;56.70;;;19.45;73.95;95429.56;5029120;28;20031;-54
2022/06/28 17:59:50;;;;;;;2.55;2.33;;;23.90;56.80;;;19.42;74.18;95425.59;5028247;28;20040;-52
2022/06/28 18:02:17;;;;;;;3.95;2.40;;;23.90;56.80;;;19.39;74.64;95422.75;4927383;28;26678;-54
2022/06/28 18:04:43;;;;;;;4.22;2.50;;;23.90;56.90;;;19.39;74.65;95414.66;4991630;28;20025;-50
2022/06/28 18:07:09;;;;;;;3.75;2.95;;;23.90;56.90;;;19.33;74.85;95402.44;4971915;28;20033;-50
2022/06/28 18:09:36;;;;;;;3.35;2.78;;;23.90;56.90;;;19.33;74.62;95397.03;5001097;28;20075;-47
2022/06/28 18:12:04;;;;;;;4.65;2.85;;;23.90;57.00;;;19.31;74.68;95396.59;4991659;28;20364;-51
2022/06/28 18:14:29;;;;;;;4.47;2.80;;;23.80;57.00;;;19.33;74.62;95408.63;4990985;28;20018;-52
2022/06/28 18:16:55;;;;;;;4.78;2.92;;;23.80;57.10;;;19.29;74.97;95417.72;5009007;28;20039;-50
2022/06/28 18:19:26;;;;;;;5.65;2.55;;;23.70;57.20;;;19.32;75.18;95423.25;5008934;28;20124;-54
2022/06/28 18:21:52;;;;;;;5.43;3.40;;;23.70;57.50;;;19.25;75.31;95427.59;4971191;28;20033;-52
2022/06/28 18:24:20;;;;;;;8.13;3.03;;;23.60;57.60;;;19.29;75.30;95425.81;5002250;28;20036;-53
2022/06/28 18:26:49;;;;;;;6.75;2.90;;;23.60;57.70;;;19.37;75.36;95428.50;4975028;28;20060;-52
2022/06/28 18:29:15;;;;;;;5.30;2.90;;;23.60;57.80;;;19.31;75.28;95426.28;5007942;28;20148;-50
2022/06/28 18:31:42;;;;;;;3.35;2.50;;;23.60;57.80;;;19.26;74.99;95429.94;5008535;28;20590;-50
2022/06/28 18:34:10;;;;;;;2.60;2.33;;;23.60;57.70;;;19.24;75.40;95436.78;5008921;28;20025;-49
2022/06/28 18:36:40;;;;;;;3.08;2.38;;;23.70;57.80;;;19.23;75.39;95440.59;5000585;28;20026;-51
2022/06/28 18:39:06;;;;;;;3.20;2.70;;;23.70;57.80;;;19.12;75.65;95442.88;4989162;28;20037;-53
2022/06/28 18:41:32;;;;;;;5.50;2.67;;;23.70;57.80;;;19.11;76.22;95438.56;4987281;28;20048;-52
2022/06/28 18:43:58;;;;;;;3.75;2.90;;;23.60;57.80;;;19.10;76.13;95442.41;4971095;28;20029;-52
2022/06/28 18:46:24;;;;;;;6.95;2.95;;;23.60;57.90;;;19.14;76.32;95441.41;4989577;28;20178;-47
2022/06/28 18:48:49;;;;;;;4.38;3.00;;;23.50;57.90;;;19.14;76.28;95451.44;4971807;28;20388;-52
2022/06/28 18:51:15;;;;;;;5.18;3.15;;;23.50;58.00;;;19.08;76.56;95452.72;4981716;28;20033;-48
2022/06/28 18:53:41;;;;;;;3.97;3.17;;;23.50;58.10;;;19.09;76.46;95457.03;5008487;28;20028;-49
2022/06/28 18:56:23;;;;;;;4.97;2.90;;;23.40;58.20;;;19.11;76.82;95473.66;5008682;28;20032;-49
2022/06/28 18:58:52;;;;;;;8.00;3.08;;;23.30;58.60;;;19.09;76.45;95475.91;4990776;28;20057;-52
2022/06/28 19:01:21;;;;;;;4.38;2.65;;;23.30;58.70;;;19.06;76.33;95480.03;5008490;28;20036;-49
2022/06/28 19:03:47;;;;;;;4.78;3.05;;;23.20;58.80;;;18.97;77.58;95476.56;4990492;28;20028;-48
2022/06/28 19:06:15;;;;;;;4.10;2.90;;;23.10;59.00;;;18.89;77.97;95488.16;4971962;28;20117;-51
2022/06/28 19:08:47;;;;;;;3.78;3.20;;;23.00;59.20;;;18.80;78.28;95471.97;4993359;28;20033;-53
2022/06/28 19:11:15;;;;;;;6.25;3.05;;;23.00;59.60;;;18.71;79.12;95469.28;5011762;28;20025;-50
2022/06/28 19:13:47;;;;;;;6.47;3.10;;;22.90;59.60;;;18.58;79.78;95455.94;4993857;28;20074;-53
2022/06/28 19:16:15;;;;;;;4.30;3.58;;;22.80;59.80;;;18.43;80.09;95468.00;4975098;28;20032;-53
2022/06/28 19:18:47;;;;;;;6.68;3.50;;;22.70;60.10;;;18.36;79.96;95471.16;5011906;28;20380;-51
2022/06/28 19:21:14;;;;;;;4.47;3.40;;;22.60;60.40;;;18.30;80.24;95479.72;4982815;28;20096;-48
2022/06/28 19:23:40;;;;;;;10.75;4.07;;;22.40;60.50;;;18.20;80.65;95484.31;4974788;28;20120;-50
2022/06/28 19:26:06;;;;;;;6.75;3.80;;;22.30;60.80;;;18.10;80.81;95481.13;4992490;28;20108;-53
2022/06/28 19:28:40;;;;;;;3.97;3.40;;;22.20;61.00;;;17.97;81.13;95470.16;4974443;28;20022;-52
2022/06/28 19:31:08;;;;;;;23.65;6.10;;;22.10;61.50;;;17.88;80.60;95476.66;4973994;28;20045;-53
2022/06/28 19:33:36;;;;;;;13.60;5.10;;;22.00;61.60;;;17.78;81.25;95483.91;5002013;28;20047;-50
2022/06/28 19:36:05;;;;;;;6.78;4.05;;;21.90;61.90;;;17.67;81.52;95490.63;5008207;28;20025;-53
2022/06/28 19:38:31;;;;;;;5.72;3.58;;;21.80;62.30;;;17.56;83.37;95500.13;4974834;28;20116;-51
2022/06/28 19:40:57;;;;;;;8.02;4.22;;;21.70;62.40;;;17.43;84.36;95493.72;4990537;28;20167;-53
2022/06/28 19:43:26;;;;;;;5.60;4.20;;;21.60;62.60;;;17.26;85.55;95493.63;5011144;28;20075;-47
2022/06/28 19:45:52;;;;;;;8.02;4.88;;;21.50;63.10;;;17.14;86.18;95498.78;5012092;28;20489;-52
2022/06/28 19:48:17;;;;;;;6.55;5.47;;;21.30;63.20;;;17.08;86.30;95501.63;4994133;28;20567;-52
2022/06/28 19:50:45;;;;;;;13.00;5.80;;;21.30;63.60;;;17.03;86.12;95507.13;5007097;28;20026;-52
2022/06/28 19:53:14;;;;;;;7.13;5.40;;;21.10;63.80;;;16.99;85.60;95508.84;4990756;28;20275;-51
2022/06/28 19:55:43;;;;;;;7.55;6.25;;;21.00;64.10;;;16.90;85.86;95509.91;4991614;28;20029;-52
2022/06/28 19:58:10;;;;;;;9.35;6.10;;;21.00;64.40;;;16.74;87.41;95509.44;4991337;28;20503;-49
2022/06/28 20:00:37;;;;;;;9.73;6.60;;;20.80;64.40;;;16.60;88.43;95506.78;4989949;28;20110;-48
2022/06/28 20:03:06;;;;;;;7.85;6.13;;;20.80;64.80;;;16.46;89.08;95501.47;4974775;28;20354;-46
2022/06/28 20:05:34;;;;;;;8.25;6.72;;;20.70;65.00;;;16.43;89.27;95497.47;4991429;28;20030;-45
2022/06/28 20:08:09;;;;;;;9.60;6.93;;;20.50;65.30;;;16.40;89.21;95508.84;4991980;28;20099;-53
2022/06/28 20:10:40;;;;;;;7.53;6.75;;;20.50;66.00;;;16.34;89.42;95515.41;4997803;28;20033;-51
2022/06/28 20:13:10;;;;;;;7.28;6.00;;;20.40;66.10;;;16.33;89.52;95513.06;4993388;28;20018;-53
2022/06/28 20:15:39;;;;;;;8.25;6.65;;;20.40;66.20;;;16.30;89.78;95517.13;4977851;28;20147;-52
2022/06/28 20:18:08;;;;;;;10.65;7.13;;;20.30;66.30;;;16.19;89.49;95529.19;5011244;28;20603;-53
2022/06/28 20:20:34;;;;;;;7.28;6.57;;;20.20;66.50;;;16.13;89.55;95531.19;5010196;28;20041;-51
2022/06/28 20:23:00;;;;;;;9.73;8.32;;;20.20;66.60;;;16.08;89.14;95527.81;4992981;28;20051;-47
2022/06/28 20:25:27;;;;;;;8.25;7.43;;;20.10;66.70;;;16.03;89.56;95534.09;5008673;28;20021;-43
2022/06/28 20:27:55;;;;;;;8.25;7.45;;;20.10;67.00;;;15.98;90.50;95533.38;5007667;28;20029;-51
2022/06/28 20:30:21;;;;;;;11.38;7.72;;;20.00;67.00;;;15.93;90.78;95536.97;5001179;28;20113;-50
2022/06/28 20:32:47;;;;;;;9.32;7.25;;;20.00;67.20;;;15.91;90.66;95539.16;5003731;28;20017;-47
2022/06/28 20:35:13;;;;;;;9.32;7.80;;;19.90;67.30;;;15.87;90.68;95538.19;4987900;28;20481;-52
2022/06/28 20:37:41;;;;;;;11.68;8.30;;;19.80;67.50;;;15.83;91.01;95539.88;4991308;28;20061;-49
2022/06/28 20:40:09;;;;;;;12.80;8.23;;;19.80;67.60;;;15.78;90.89;95537.28;4981695;28;20480;-50
2022/06/28 20:42:43;;;;;;;15.57;8.43;;;19.80;68.60;;;15.72;91.14;95542.75;4987455;28;20021;-51
2022/06/28 20:45:13;;;;;;;15.60;8.40;;;19.80;68.20;;;15.67;90.48;95537.47;4996961;28;20079;-50
2022/06/28 20:47:43;;;;;;;9.10;7.82;;;19.70;68.00;;;15.61;91.54;95541.31;4991001;28;20086;-51
2022/06/28 20:50:11;;;;;;;17.95;9.45;;;19.70;68.20;;;15.57;92.21;95542.19;5003985;28;20106;-51
2022/06/28 20:52:41;;;;;;;10.90;9.13;;;19.70;68.20;;;15.50;91.64;95537.22;4974295;28;20018;-52
2022/06/28 20:55:09;;;;;;;16.95;9.75;;;19.60;68.40;;;15.43;92.27;95537.63;4983455;28;20030;-50
2022/06/28 20:57:43;;;;;;;16.60;10.95;;;19.50;68.40;;;15.39;92.19;95539.31;4980198;28;20103;-54
2022/06/28 21:00:21;;;;;;;14.88;10.65;;;19.50;68.70;;;15.37;93.17;95543.38;4997338;28;20053;-52
2022/06/28 21:03:02;;;;;;;12.95;10.32;;;19.40;69.00;;;15.36;93.32;95544.47;4988611;28;20560;-49
2022/06/28 21:05:43;;;;;;;11.48;10.18;;;19.40;69.20;;;15.34;92.83;95538.59;4958280;28;20040;-50
2022/06/28 21:08:18;;;;;;;11.27;8.93;;;19.40;69.30;;;15.31;92.52;95537.28;5003296;28;20078;-48
2022/06/28 21:10:50;;;;;;;11.98;8.52;;;19.40;69.30;;;15.28;93.05;95540.56;4999484;28;20072;-48
2022/06/28 21:13:23;;;;;;;14.18;9.30;;;19.40;69.50;;;15.29;92.95;95542.16;5002639;28;20057;-52
2022/06/28 21:15:52;;;;;;;11.68;9.18;;;19.40;69.50;;;15.30;93.18;95541.06;4984232;28;20067;-51
2022/06/28 21:18:24;;;;;;;12.15;8.73;;;19.40;69.60;;;15.31;93.88;95545.34;4992960;28;20029;-50
2022/06/28 21:20:54;;;;;;;13.37;9.50;;;19.40;69.90;;;15.33;94.27;95545.06;4988148;28;20071;-47
2022/06/28 21:23:23;;;;;;;12.05;10.35;;;19.40;69.80;;;15.35;95.31;95554.38;4974348;28;20307;-52
2022/06/28 21:25:52;;;;;;;12.65;10.63;;;19.40;70.10;;;15.38;95.80;95559.16;5005092;28;20037;-48
2022/06/28 21:28:18;;;;;;;12.00;9.48;;;19.40;70.30;;;15.43;95.94;95559.09;4973144;28;20021;-47
2022/06/28 21:30:47;;;;;;;16.42;10.50;;;19.50;70.40;;;15.52;95.64;95556.53;4995544;28;20025;-50
2022/06/28 21:33:16;;;;;;;14.82;10.65;;;19.50;70.70;;;15.55;95.61;95547.09;5009177;28;20064;-46
2022/06/28 21:35:42;;;;;;;14.30;10.88;;;19.50;70.80;;;15.60;95.71;95550.44;4987890;28;20484;-45
2022/06/28 21:38:09;;;;;;;13.13;10.48;;;19.50;70.80;;;15.66;95.51;95551.16;5001244;28;20037;-48
2022/06/28 21:40:37;;;;;;;11.65;9.70;;;19.60;70.90;;;15.71;95.43;95554.59;4970902;28;20450;-49
2022/06/28 21:43:07;;;;;;;10.98;8.88;;;19.60;71.00;;;15.77;95.38;95549.13;4972642;28;20510;-47
2022/06/28 21:45:34;;;;;;;10.75;9.65;;;19.70;71.10;;;15.81;95.36;95545.53;4973285;28;20068;-47
2022/06/28 21:48:00;;;;;;;12.30;9.55;;;19.70;71.00;;;15.86;95.32;95548.13;4990786;28;20025;-45
2022/06/28 21:50:27;;;;;;;10.35;9.23;;;19.70;71.00;;;15.91;95.38;95550.69;4989125;28;20431;-47
2022/06/28 21:52:54;;;;;;;10.00;9.10;;;19.80;71.10;;;15.97;95.04;95548.72;4977953;28;20056;-45
2022/06/28 21:55:20;;;;;;;10.50;9.40;;;19.80;71.00;;;16.00;94.98;95545.44;4969580;28;20036;-46
2022/06/28 21:57:46;;;;;;;9.93;8.73;;;19.90;71.00;;;16.02;94.70;95547.81;5010310;28;20056;-46
2022/06/28 22:00:37;;;;;;;10.70;8.63;;;19.90;71.00;;;16.02;94.26;95545.16;5009550;28;20037;-47
2022/06/28 22:03:07;;;;;;;11.95;9.30;;;19.90;71.10;;;15.99;94.07;95546.53;4991737;28;20112;-46
2022/06/28 22:05:34;;;;;;;11.77;8.70;;;19.90;70.90;;;15.97;93.75;95543.34;4975839;28;20495;-47
2022/06/28 22:08:05;;;;;;;12.07;9.88;;;19.90;70.80;;;15.94;93.61;95541.25;4992839;28;20029;-46
2022/06/28 22:10:32;;;;;;;11.63;9.07;;;19.90;70.90;;;15.88;94.11;95534.38;4992250;28;20514;-49
2022/06/28 22:12:59;;;;;;;12.73;9.25;;;19.80;70.80;;;15.86;93.74;95532.00;4992268;28;20103;-46
2022/06/28 22:15:34;;;;;;;13.32;10.57;;;19.80;70.70;;;15.83;93.39;95539.88;5010035;28;20168;-47
2022/06/28 22:18:00;;;;;;;14.18;9.45;;;19.70;70.90;;;15.79;93.99;95536.19;5009503;28;20025;-48
